sensor_id;sensor_type;location;lat;lon;timestamp;P1;durP1;ratioP1;P2;durP2;ratioP2
10090;SDS011;5084;51.386;6.778;2023-03-14T00:01:24;3.03;;;2.53;;
10090;SDS011;5084;51.386;6.778;2023-03-14T00:03:50;4.80;;;2.77;;
10090;SDS011;5084;51.386;6.778;2023-03-14T00:06:17;3.10;;;2.40;;
10090;SDS011;5084;51.386;6.778;2023-03-14T00:08:44;3.43;;;2.43;;
10090;SDS011;5084;51.386;6.778;2023-03-14T00:11:11;3.30;;;2.30;;
10090;SDS011;5084;51.386;6.778;2023-03-14T00:13:38;4.47;;;2.30;;
10090;SDS011;5084;51.386;6.778;2023-03-14T00:16:04;5.07;;;2.50;;
10090;SDS011;5084;51.386;6.778;2023-03-14T00:18:31;4.93;;;2.67;;
10090;SDS011;5084;51.386;6.778;2023-03-14T00:21:00;4.37;;;2.70;;
10090;SDS011;5084;51.386;6.778;2023-03-14T00:23:27;4.93;;;2.60;;
10090;SDS011;5084;51.386;6.778;2023-03-14T00:25:53;5.07;;;3.07;;
10090;SDS011;5084;51.386;6.778;2023-03-14T00:28:19;4.00;;;2.13;;
10090;SDS011;5084;51.386;6.778;2023-03-14T00:30:45;2.93;;;2.67;;
10090;SDS011;5084;51.386;6.778;2023-03-14T00:33:11;5.07;;;2.87;;
10090;SDS011;5084;51.386;6.778;2023-03-14T00:35:37;3.10;;;2.40;;
10090;SDS011;5084;51.386;6.778;2023-03-14T00:38:03;4.43;;;2.47;;
10090;SDS011;5084;51.386;6.778;2023-03-14T00:40:29;6.03;;;2.90;;
10090;SDS011;5084;51.386;6.778;2023-03-14T00:42:55;3.93;;;2.13;;
10090;SDS011;5084;51.386;6.778;2023-03-14T00:45:21;3.83;;;2.50;;
10090;SDS011;5084;51.386;6.778;2023-03-14T00:47:48;3.83;;;2.60;;
10090;SDS011;5084;51.386;6.778;2023-03-14T00:50:14;3.53;;;2.70;;
10090;SDS011;5084;51.386;6.778;2023-03-14T00:52:40;3.63;;;2.37;;
10090;SDS011;5084;51.386;6.778;2023-03-14T00:55:06;3.50;;;2.50;;
10090;SDS011;5084;51.386;6.778;2023-03-14T00:57:32;3.73;;;2.73;;
10090;SDS011;5084;51.386;6.778;2023-03-14T00:59:58;3.40;;;2.10;;
10090;SDS011;5084;51.386;6.778;2023-03-14T01:02:24;2.93;;;2.10;;
10090;SDS011;5084;51.386;6.778;2023-03-14T01:04:50;2.57;;;1.97;;
10090;SDS011;5084;51.386;6.778;2023-03-14T01:07:16;2.43;;;2.23;;
10090;SDS011;5084;51.386;6.778;2023-03-14T01:09:42;4.23;;;2.70;;
10090;SDS011;5084;51.386;6.778;2023-03-14T01:12:08;2.33;;;2.10;;
10090;SDS011;5084;51.386;6.778;2023-03-14T01:14:34;4.20;;;2.43;;
10090;SDS011;5084;51.386;6.778;2023-03-14T01:17:01;2.47;;;2.23;;
10090;SDS011;5084;51.386;6.778;2023-03-14T01:19:27;4.20;;;2.47;;
10090;SDS011;5084;51.386;6.778;2023-03-14T01:21:53;3.23;;;2.20;;
10090;SDS011;5084;51.386;6.778;2023-03-14T01:24:20;3.73;;;2.33;;
10090;SDS011;5084;51.386;6.778;2023-03-14T01:26:46;3.33;;;2.57;;
10090;SDS011;5084;51.386;6.778;2023-03-14T01:29:12;5.97;;;2.67;;
10090;SDS011;5084;51.386;6.778;2023-03-14T01:31:38;2.67;;;2.37;;
10090;SDS011;5084;51.386;6.778;2023-03-14T01:34:04;2.37;;;2.17;;
10090;SDS011;5084;51.386;6.778;2023-03-14T01:36:30;5.60;;;2.30;;
10090;SDS011;5084;51.386;6.778;2023-03-14T01:38:56;3.20;;;2.20;;
10090;SDS011;5084;51.386;6.778;2023-03-14T01:41:24;4.07;;;2.53;;
10090;SDS011;5084;51.386;6.778;2023-03-14T01:43:50;2.57;;;2.37;;
10090;SDS011;5084;51.386;6.778;2023-03-14T01:46:21;2.10;;;1.90;;
10090;SDS011;5084;51.386;6.778;2023-03-14T01:48:53;4.10;;;2.10;;
10090;SDS011;5084;51.386;6.778;2023-03-14T01:51:21;4.70;;;2.60;;
10090;SDS011;5084;51.386;6.778;2023-03-14T01:53:49;2.73;;;1.80;;
10090;SDS011;5084;51.386;6.778;2023-03-14T01:56:16;2.93;;;1.93;;
10090;SDS011;5084;51.386;6.778;2023-03-14T01:58:44;4.03;;;2.00;;
10090;SDS011;5084;51.386;6.778;2023-03-14T02:01:11;4.13;;;2.10;;
10090;SDS011;5084;51.386;6.778;2023-03-14T02:03:44;2.47;;;2.00;;
10090;SDS011;5084;51.386;6.778;2023-03-14T02:06:12;3.17;;;1.90;;
10090;SDS011;5084;51.386;6.778;2023-03-14T02:08:40;3.00;;;2.20;;
10090;SDS011;5084;51.386;6.778;2023-03-14T02:11:06;3.47;;;2.30;;
10090;SDS011;5084;51.386;6.778;2023-03-14T02:13:33;3.00;;;2.13;;
10090;SDS011;5084;51.386;6.778;2023-03-14T02:15:59;1.83;;;1.60;;
10090;SDS011;5084;51.386;6.778;2023-03-14T02:18:25;2.70;;;1.83;;
10090;SDS011;5084;51.386;6.778;2023-03-14T02:21:00;4.53;;;1.80;;
10090;SDS011;5084;51.386;6.778;2023-03-14T02:28:21;3.40;;;1.70;;
10090;SDS011;5084;51.386;6.778;2023-03-14T02:30:47;3.57;;;1.93;;
10090;SDS011;5084;51.386;6.778;2023-03-14T02:33:17;4.83;;;2.20;;
10090;SDS011;5084;51.386;6.778;2023-03-14T02:35:46;5.70;;;2.43;;
10090;SDS011;5084;51.386;6.778;2023-03-14T02:38:16;4.57;;;2.23;;
10090;SDS011;5084;51.386;6.778;2023-03-14T02:40:43;3.30;;;2.30;;
10090;SDS011;5084;51.386;6.778;2023-03-14T02:43:09;3.80;;;1.90;;
10090;SDS011;5084;51.386;6.778;2023-03-14T02:45:37;3.47;;;2.20;;
10090;SDS011;5084;51.386;6.778;2023-03-14T02:48:05;2.40;;;1.83;;
10090;SDS011;5084;51.386;6.778;2023-03-14T02:50:32;4.07;;;2.10;;
10090;SDS011;5084;51.386;6.778;2023-03-14T02:52:59;2.27;;;2.00;;
10090;SDS011;5084;51.386;6.778;2023-03-14T02:55:25;2.13;;;1.90;;
10090;SDS011;5084;51.386;6.778;2023-03-14T02:57:51;2.50;;;2.17;;
10090;SDS011;5084;51.386;6.778;2023-03-14T03:00:18;2.20;;;2.10;;
10090;SDS011;5084;51.386;6.778;2023-03-14T03:02:44;3.30;;;2.50;;
10090;SDS011;5084;51.386;6.778;2023-03-14T03:05:11;4.53;;;2.10;;
10090;SDS011;5084;51.386;6.778;2023-03-14T03:07:37;7.13;;;2.37;;
10090;SDS011;5084;51.386;6.778;2023-03-14T03:10:03;3.37;;;2.37;;
10090;SDS011;5084;51.386;6.778;2023-03-14T03:12:30;2.73;;;2.00;;
10090;SDS011;5084;51.386;6.778;2023-03-14T03:14:56;3.03;;;2.00;;
10090;SDS011;5084;51.386;6.778;2023-03-14T03:17:22;3.53;;;2.30;;
10090;SDS011;5084;51.386;6.778;2023-03-14T03:19:48;3.50;;;2.33;;
10090;SDS011;5084;51.386;6.778;2023-03-14T03:22:14;3.20;;;2.00;;
10090;SDS011;5084;51.386;6.778;2023-03-14T03:24:40;5.60;;;2.50;;
10090;SDS011;5084;51.386;6.778;2023-03-14T03:27:06;3.13;;;1.77;;
10090;SDS011;5084;51.386;6.778;2023-03-14T03:29:32;2.23;;;2.00;;
10090;SDS011;5084;51.386;6.778;2023-03-14T03:31:58;2.93;;;1.90;;
10090;SDS011;5084;51.386;6.778;2023-03-14T03:34:24;3.83;;;1.90;;
10090;SDS011;5084;51.386;6.778;2023-03-14T03:36:50;4.10;;;1.80;;
10090;SDS011;5084;51.386;6.778;2023-03-14T03:39:16;3.00;;;2.00;;
10090;SDS011;5084;51.386;6.778;2023-03-14T03:41:42;3.00;;;1.60;;
10090;SDS011;5084;51.386;6.778;2023-03-14T03:44:08;3.67;;;1.83;;
10090;SDS011;5084;51.386;6.778;2023-03-14T03:46:34;3.23;;;2.23;;
10090;SDS011;5084;51.386;6.778;2023-03-14T03:49:00;3.20;;;2.20;;
10090;SDS011;5084;51.386;6.778;2023-03-14T03:51:26;2.83;;;1.83;;
10090;SDS011;5084;51.386;6.778;2023-03-14T03:53:52;3.03;;;1.80;;
10090;SDS011;5084;51.386;6.778;2023-03-14T03:56:18;3.07;;;1.90;;
10090;SDS011;5084;51.386;6.778;2023-03-14T03:58:45;2.50;;;1.77;;
10090;SDS011;5084;51.386;6.778;2023-03-14T04:01:11;4.80;;;4.20;;
10090;SDS011;5084;51.386;6.778;2023-03-14T04:03:37;4.13;;;2.27;;
10090;SDS011;5084;51.386;6.778;2023-03-14T04:08:30;3.67;;;1.80;;
10090;SDS011;5084;51.386;6.778;2023-03-14T04:11:00;4.97;;;2.07;;
10090;SDS011;5084;51.386;6.778;2023-03-14T04:13:26;2.30;;;1.93;;
10090;SDS011;5084;51.386;6.778;2023-03-14T04:15:53;4.03;;;2.30;;
10090;SDS011;5084;51.386;6.778;2023-03-14T04:18:20;3.50;;;3.10;;
10090;SDS011;5084;51.386;6.778;2023-03-14T04:20:50;3.27;;;1.97;;
10090;SDS011;5084;51.386;6.778;2023-03-14T04:23:16;3.73;;;1.53;;
10090;SDS011;5084;51.386;6.778;2023-03-14T04:25:42;3.27;;;1.70;;
10090;SDS011;5084;51.386;6.778;2023-03-14T04:28:08;3.23;;;1.87;;
10090;SDS011;5084;51.386;6.778;2023-03-14T04:30:34;2.33;;;1.70;;
10090;SDS011;5084;51.386;6.778;2023-03-14T04:33:00;2.30;;;1.73;;
10090;SDS011;5084;51.386;6.778;2023-03-14T04:35:26;3.43;;;1.67;;
10090;SDS011;5084;51.386;6.778;2023-03-14T04:37:52;2.00;;;1.47;;
10090;SDS011;5084;51.386;6.778;2023-03-14T04:40:18;3.40;;;3.10;;
10090;SDS011;5084;51.386;6.778;2023-03-14T04:42:44;2.60;;;1.70;;
10090;SDS011;5084;51.386;6.778;2023-03-14T04:45:10;2.53;;;1.40;;
10090;SDS011;5084;51.386;6.778;2023-03-14T04:47:37;1.77;;;1.40;;
10090;SDS011;5084;51.386;6.778;2023-03-14T04:50:03;3.97;;;2.10;;
10090;SDS011;5084;51.386;6.778;2023-03-14T04:52:29;2.23;;;1.53;;
10090;SDS011;5084;51.386;6.778;2023-03-14T04:54:55;1.93;;;1.60;;
10090;SDS011;5084;51.386;6.778;2023-03-14T04:57:21;1.70;;;1.60;;
10090;SDS011;5084;51.386;6.778;2023-03-14T04:59:47;2.53;;;1.47;;
10090;SDS011;5084;51.386;6.778;2023-03-14T05:02:13;3.60;;;3.40;;
10090;SDS011;5084;51.386;6.778;2023-03-14T05:04:39;1.60;;;1.50;;
10090;SDS011;5084;51.386;6.778;2023-03-14T05:07:05;2.17;;;1.97;;
10090;SDS011;5084;51.386;6.778;2023-03-14T05:09:32;1.30;;;1.20;;
10090;SDS011;5084;51.386;6.778;2023-03-14T05:11:58;2.07;;;1.33;;
10090;SDS011;5084;51.386;6.778;2023-03-14T05:14:24;1.33;;;1.23;;
10090;SDS011;5084;51.386;6.778;2023-03-14T05:16:50;1.30;;;1.20;;
10090;SDS011;5084;51.386;6.778;2023-03-14T05:19:16;2.97;;;1.40;;
10090;SDS011;5084;51.386;6.778;2023-03-14T05:21:42;1.80;;;1.70;;
10090;SDS011;5084;51.386;6.778;2023-03-14T05:24:08;1.27;;;1.27;;
10090;SDS011;5084;51.386;6.778;2023-03-14T05:26:34;2.17;;;1.43;;
10090;SDS011;5084;51.386;6.778;2023-03-14T05:29:01;1.30;;;1.20;;
10090;SDS011;5084;51.386;6.778;2023-03-14T05:31:27;1.83;;;1.20;;
10090;SDS011;5084;51.386;6.778;2023-03-14T05:33:53;1.53;;;1.43;;
10090;SDS011;5084;51.386;6.778;2023-03-14T05:36:19;3.13;;;3.03;;
10090;SDS011;5084;51.386;6.778;2023-03-14T05:38:45;2.33;;;1.43;;
10090;SDS011;5084;51.386;6.778;2023-03-14T05:41:11;1.20;;;1.17;;
10090;SDS011;5084;51.386;6.778;2023-03-14T05:43:37;1.60;;;1.50;;
10090;SDS011;5084;51.386;6.778;2023-03-14T05:46:04;1.83;;;1.73;;
10090;SDS011;5084;51.386;6.778;2023-03-14T05:48:30;1.10;;;1.10;;
10090;SDS011;5084;51.386;6.778;2023-03-14T05:50:57;2.00;;;1.33;;
10090;SDS011;5084;51.386;6.778;2023-03-14T05:53:24;1.30;;;1.20;;
10090;SDS011;5084;51.386;6.778;2023-03-14T05:55:51;2.60;;;1.50;;
10090;SDS011;5084;51.386;6.778;2023-03-14T05:58:17;1.57;;;1.33;;
10090;SDS011;5084;51.386;6.778;2023-03-14T06:00:43;2.53;;;2.43;;
10090;SDS011;5084;51.386;6.778;2023-03-14T06:03:09;3.87;;;1.77;;
10090;SDS011;5084;51.386;6.778;2023-03-14T06:05:35;2.40;;;1.20;;
10090;SDS011;5084;51.386;6.778;2023-03-14T06:08:01;1.30;;;1.20;;
10090;SDS011;5084;51.386;6.778;2023-03-14T06:10:27;1.03;;;1.03;;
10090;SDS011;5084;51.386;6.778;2023-03-14T06:12:53;2.97;;;1.30;;
10090;SDS011;5084;51.386;6.778;2023-03-14T06:15:19;1.20;;;1.10;;
10090;SDS011;5084;51.386;6.778;2023-03-14T06:17:45;0.90;;;0.90;;
10090;SDS011;5084;51.386;6.778;2023-03-14T06:20:11;1.30;;;1.20;;
10090;SDS011;5084;51.386;6.778;2023-03-14T06:22:37;1.33;;;1.17;;
10090;SDS011;5084;51.386;6.778;2023-03-14T06:25:05;1.63;;;1.30;;
10090;SDS011;5084;51.386;6.778;2023-03-14T06:27:32;1.90;;;1.33;;
10090;SDS011;5084;51.386;6.778;2023-03-14T06:29:58;2.10;;;1.00;;
10090;SDS011;5084;51.386;6.778;2023-03-14T06:32:24;1.20;;;1.10;;
10090;SDS011;5084;51.386;6.778;2023-03-14T06:34:50;1.33;;;1.30;;
10090;SDS011;5084;51.386;6.778;2023-03-14T06:37:16;1.27;;;1.00;;
10090;SDS011;5084;51.386;6.778;2023-03-14T06:39:42;1.00;;;1.00;;
10090;SDS011;5084;51.386;6.778;2023-03-14T06:42:09;1.00;;;1.00;;
10090;SDS011;5084;51.386;6.778;2023-03-14T06:44:35;0.90;;;0.90;;
10090;SDS011;5084;51.386;6.778;2023-03-14T06:47:01;1.23;;;1.23;;
10090;SDS011;5084;51.386;6.778;2023-03-14T06:49:27;1.23;;;1.10;;
10090;SDS011;5084;51.386;6.778;2023-03-14T06:51:53;1.50;;;1.40;;
10090;SDS011;5084;51.386;6.778;2023-03-14T06:54:20;1.20;;;1.10;;
10090;SDS011;5084;51.386;6.778;2023-03-14T06:56:46;1.00;;;1.00;;
10090;SDS011;5084;51.386;6.778;2023-03-14T06:59:12;1.00;;;1.00;;
10090;SDS011;5084;51.386;6.778;2023-03-14T07:01:38;1.07;;;1.00;;
10090;SDS011;5084;51.386;6.778;2023-03-14T07:04:05;1.00;;;1.00;;
10090;SDS011;5084;51.386;6.778;2023-03-14T07:06:31;1.10;;;1.00;;
10090;SDS011;5084;51.386;6.778;2023-03-14T07:08:57;2.70;;;1.10;;
10090;SDS011;5084;51.386;6.778;2023-03-14T07:11:23;1.40;;;1.30;;
10090;SDS011;5084;51.386;6.778;2023-03-14T07:13:49;0.97;;;0.90;;
10090;SDS011;5084;51.386;6.778;2023-03-14T07:16:15;1.00;;;1.00;;
10090;SDS011;5084;51.386;6.778;2023-03-14T07:18:41;1.00;;;1.00;;
10090;SDS011;5084;51.386;6.778;2023-03-14T07:21:08;0.80;;;0.80;;
10090;SDS011;5084;51.386;6.778;2023-03-14T07:23:34;1.40;;;1.30;;
10090;SDS011;5084;51.386;6.778;2023-03-14T07:26:00;1.00;;;1.00;;
10090;SDS011;5084;51.386;6.778;2023-03-14T07:28:26;1.20;;;1.17;;
10090;SDS011;5084;51.386;6.778;2023-03-14T07:30:53;1.00;;;1.00;;
10090;SDS011;5084;51.386;6.778;2023-03-14T07:33:19;1.00;;;1.00;;
10090;SDS011;5084;51.386;6.778;2023-03-14T07:35:48;0.90;;;0.90;;
10090;SDS011;5084;51.386;6.778;2023-03-14T07:38:15;1.20;;;1.10;;
10090;SDS011;5084;51.386;6.778;2023-03-14T07:40:41;1.10;;;1.00;;
10090;SDS011;5084;51.386;6.778;2023-03-14T07:43:07;1.10;;;1.10;;
10090;SDS011;5084;51.386;6.778;2023-03-14T07:45:33;1.00;;;1.00;;
10090;SDS011;5084;51.386;6.778;2023-03-14T07:47:59;1.40;;;1.13;;
10090;SDS011;5084;51.386;6.778;2023-03-14T07:50:27;0.90;;;0.90;;
10090;SDS011;5084;51.386;6.778;2023-03-14T07:52:53;1.10;;;1.10;;
10090;SDS011;5084;51.386;6.778;2023-03-14T07:55:20;1.70;;;0.90;;
10090;SDS011;5084;51.386;6.778;2023-03-14T07:57:46;0.93;;;0.93;;
10090;SDS011;5084;51.386;6.778;2023-03-14T08:00:12;1.60;;;0.90;;
10090;SDS011;5084;51.386;6.778;2023-03-14T08:02:39;0.80;;;0.80;;
10090;SDS011;5084;51.386;6.778;2023-03-14T08:05:06;2.30;;;1.57;;
10090;SDS011;5084;51.386;6.778;2023-03-14T08:07:32;0.80;;;0.80;;
10090;SDS011;5084;51.386;6.778;2023-03-14T08:09:58;1.50;;;1.40;;
10090;SDS011;5084;51.386;6.778;2023-03-14T08:12:24;0.87;;;0.87;;
10090;SDS011;5084;51.386;6.778;2023-03-14T08:14:50;1.10;;;1.10;;
10090;SDS011;5084;51.386;6.778;2023-03-14T08:17:16;1.10;;;1.10;;
10090;SDS011;5084;51.386;6.778;2023-03-14T08:19:42;1.00;;;1.00;;
10090;SDS011;5084;51.386;6.778;2023-03-14T08:22:08;1.10;;;1.10;;
10090;SDS011;5084;51.386;6.778;2023-03-14T08:24:34;1.30;;;1.20;;
10090;SDS011;5084;51.386;6.778;2023-03-14T08:27:00;1.53;;;1.43;;
10090;SDS011;5084;51.386;6.778;2023-03-14T08:29:26;1.40;;;1.30;;
10090;SDS011;5084;51.386;6.778;2023-03-14T08:31:52;2.00;;;1.37;;
10090;SDS011;5084;51.386;6.778;2023-03-14T08:34:19;1.60;;;1.50;;
10090;SDS011;5084;51.386;6.778;2023-03-14T08:36:45;1.13;;;1.13;;
10090;SDS011;5084;51.386;6.778;2023-03-14T08:39:11;1.70;;;1.40;;
10090;SDS011;5084;51.386;6.778;2023-03-14T08:41:37;1.30;;;1.20;;
10090;SDS011;5084;51.386;6.778;2023-03-14T08:44:09;1.37;;;1.27;;
10090;SDS011;5084;51.386;6.778;2023-03-14T08:46:36;1.40;;;1.30;;
10090;SDS011;5084;51.386;6.778;2023-03-14T08:49:03;1.63;;;1.40;;
10090;SDS011;5084;51.386;6.778;2023-03-14T08:51:29;1.40;;;1.30;;
10090;SDS011;5084;51.386;6.778;2023-03-14T08:53:55;1.70;;;1.53;;
10090;SDS011;5084;51.386;6.778;2023-03-14T08:56:21;1.77;;;1.67;;
10090;SDS011;5084;51.386;6.778;2023-03-14T08:58:47;1.77;;;1.63;;
10090;SDS011;5084;51.386;6.778;2023-03-14T09:01:13;3.10;;;2.80;;
10090;SDS011;5084;51.386;6.778;2023-03-14T09:03:39;3.03;;;2.73;;
10090;SDS011;5084;51.386;6.778;2023-03-14T09:06:06;3.80;;;3.47;;
10090;SDS011;5084;51.386;6.778;2023-03-14T09:08:32;3.43;;;3.10;;
10090;SDS011;5084;51.386;6.778;2023-03-14T09:10:59;6.47;;;3.70;;
10090;SDS011;5084;51.386;6.778;2023-03-14T09:13:25;5.03;;;4.40;;
10090;SDS011;5084;51.386;6.778;2023-03-14T09:15:51;5.07;;;4.40;;
10090;SDS011;5084;51.386;6.778;2023-03-14T09:18:17;3.93;;;3.53;;
10090;SDS011;5084;51.386;6.778;2023-03-14T09:20:43;3.53;;;3.10;;
10090;SDS011;5084;51.386;6.778;2023-03-14T09:23:10;3.40;;;2.27;;
10090;SDS011;5084;51.386;6.778;2023-03-14T09:25:36;2.20;;;2.00;;
10090;SDS011;5084;51.386;6.778;2023-03-14T09:28:02;2.03;;;1.80;;
10090;SDS011;5084;51.386;6.778;2023-03-14T09:30:28;1.87;;;1.70;;
10090;SDS011;5084;51.386;6.778;2023-03-14T09:32:54;1.70;;;1.60;;
10090;SDS011;5084;51.386;6.778;2023-03-14T09:35:20;1.47;;;1.37;;
10090;SDS011;5084;51.386;6.778;2023-03-14T09:37:46;1.47;;;1.37;;
10090;SDS011;5084;51.386;6.778;2023-03-14T09:40:13;1.40;;;1.30;;
10090;SDS011;5084;51.386;6.778;2023-03-14T09:42:40;1.30;;;1.20;;
10090;SDS011;5084;51.386;6.778;2023-03-14T09:45:11;1.40;;;1.30;;
10090;SDS011;5084;51.386;6.778;2023-03-14T09:47:37;1.20;;;1.10;;
10090;SDS011;5084;51.386;6.778;2023-03-14T09:50:05;1.40;;;1.30;;
10090;SDS011;5084;51.386;6.778;2023-03-14T09:52:32;1.77;;;1.67;;
10090;SDS011;5084;51.386;6.778;2023-03-14T09:55:05;1.63;;;1.50;;
10090;SDS011;5084;51.386;6.778;2023-03-14T09:57:33;1.87;;;1.77;;
10090;SDS011;5084;51.386;6.778;2023-03-14T10:00:00;1.67;;;1.57;;
10090;SDS011;5084;51.386;6.778;2023-03-14T10:02:37;1.40;;;1.30;;
10090;SDS011;5084;51.386;6.778;2023-03-14T10:05:04;1.90;;;1.80;;
10090;SDS011;5084;51.386;6.778;2023-03-14T10:07:31;1.70;;;1.60;;
10090;SDS011;5084;51.386;6.778;2023-03-14T10:09:58;1.50;;;1.40;;
10090;SDS011;5084;51.386;6.778;2023-03-14T10:12:31;1.67;;;1.57;;
10090;SDS011;5084;51.386;6.778;2023-03-14T10:14:57;2.73;;;1.70;;
10090;SDS011;5084;51.386;6.778;2023-03-14T10:17:28;1.60;;;1.50;;
10090;SDS011;5084;51.386;6.778;2023-03-14T10:19:59;2.93;;;1.83;;
10090;SDS011;5084;51.386;6.778;2023-03-14T10:22:27;1.50;;;1.40;;
10090;SDS011;5084;51.386;6.778;2023-03-14T10:24:55;1.50;;;1.40;;
10090;SDS011;5084;51.386;6.778;2023-03-14T10:27:28;2.50;;;1.90;;
10090;SDS011;5084;51.386;6.778;2023-03-14T10:30:26;1.60;;;1.50;;
10090;SDS011;5084;51.386;6.778;2023-03-14T10:32:43;2.10;;;1.87;;
10090;SDS011;5084;51.386;6.778;2023-03-14T10:37:47;1.80;;;1.70;;
10090;SDS011;5084;51.386;6.778;2023-03-14T10:40:13;2.10;;;1.70;;
10090;SDS011;5084;51.386;6.778;2023-03-14T10:42:41;1.57;;;1.47;;
10090;SDS011;5084;51.386;6.778;2023-03-14T10:45:22;1.70;;;1.60;;
10090;SDS011;5084;51.386;6.778;2023-03-14T10:47:51;1.60;;;1.50;;
10090;SDS011;5084;51.386;6.778;2023-03-14T10:50:24;2.93;;;1.70;;
10090;SDS011;5084;51.386;6.778;2023-03-14T10:52:51;1.93;;;1.50;;
10090;SDS011;5084;51.386;6.778;2023-03-14T10:55:18;1.97;;;1.77;;
10090;SDS011;5084;51.386;6.778;2023-03-14T10:57:44;2.17;;;1.73;;
10090;SDS011;5084;51.386;6.778;2023-03-14T11:00:17;4.77;;;1.70;;
10090;SDS011;5084;51.386;6.778;2023-03-14T11:05:20;2.20;;;1.20;;
10090;SDS011;5084;51.386;6.778;2023-03-14T11:07:47;1.67;;;1.57;;
10090;SDS011;5084;51.386;6.778;2023-03-14T11:20:55;2.57;;;1.97;;
10090;SDS011;5084;51.386;6.778;2023-03-14T11:23:27;3.27;;;2.00;;
10090;SDS011;5084;51.386;6.778;2023-03-14T11:28:37;2.33;;;1.77;;
10090;SDS011;5084;51.386;6.778;2023-03-14T11:33:37;3.53;;;2.07;;
10090;SDS011;5084;51.386;6.778;2023-03-14T11:36:08;2.80;;;1.97;;
10090;SDS011;5084;51.386;6.778;2023-03-14T11:38:38;1.50;;;1.40;;
10090;SDS011;5084;51.386;6.778;2023-03-14T11:41:09;1.90;;;1.60;;
10090;SDS011;5084;51.386;6.778;2023-03-14T11:43:37;2.73;;;1.90;;
10090;SDS011;5084;51.386;6.778;2023-03-14T11:46:09;3.33;;;1.60;;
10090;SDS011;5084;51.386;6.778;2023-03-14T11:48:44;3.23;;;2.30;;
10090;SDS011;5084;51.386;6.778;2023-03-14T11:51:13;1.70;;;1.60;;
10090;SDS011;5084;51.386;6.778;2023-03-14T11:54:02;2.23;;;2.00;;
10090;SDS011;5084;51.386;6.778;2023-03-14T11:56:31;2.37;;;2.00;;
10090;SDS011;5084;51.386;6.778;2023-03-14T11:59:00;3.73;;;2.07;;
10090;SDS011;5084;51.386;6.778;2023-03-14T12:01:31;2.13;;;1.93;;
10090;SDS011;5084;51.386;6.778;2023-03-14T12:04:02;4.13;;;2.07;;
10090;SDS011;5084;51.386;6.778;2023-03-14T12:06:46;2.80;;;1.77;;
10090;SDS011;5084;51.386;6.778;2023-03-14T12:09:13;1.70;;;1.60;;
10090;SDS011;5084;51.386;6.778;2023-03-14T12:11:50;5.07;;;2.10;;
10090;SDS011;5084;51.386;6.778;2023-03-14T12:16:47;4.83;;;2.63;;
10090;SDS011;5084;51.386;6.778;2023-03-14T12:19:14;5.83;;;2.90;;
10090;SDS011;5084;51.386;6.778;2023-03-14T12:21:51;7.43;;;3.77;;
10090;SDS011;5084;51.386;6.778;2023-03-14T12:24:19;4.43;;;3.20;;
10090;SDS011;5084;51.386;6.778;2023-03-14T12:26:52;6.33;;;2.87;;
10090;SDS011;5084;51.386;6.778;2023-03-14T12:29:18;4.77;;;2.70;;
10090;SDS011;5084;51.386;6.778;2023-03-14T12:32:27;6.27;;;3.67;;
10090;SDS011;5084;51.386;6.778;2023-03-14T12:34:34;6.47;;;3.50;;
10090;SDS011;5084;51.386;6.778;2023-03-14T12:42:12;5.00;;;3.60;;
10090;SDS011;5084;51.386;6.778;2023-03-14T12:44:40;5.83;;;2.80;;
10090;SDS011;5084;51.386;6.778;2023-03-14T12:49:42;6.20;;;2.70;;
10090;SDS011;5084;51.386;6.778;2023-03-14T12:52:15;7.50;;;2.87;;
10090;SDS011;5084;51.386;6.778;2023-03-14T12:57:27;7.83;;;4.27;;
10090;SDS011;5084;51.386;6.778;2023-03-14T12:59:57;6.60;;;2.90;;
10090;SDS011;5084;51.386;6.778;2023-03-14T13:07:39;10.97;;;3.90;;
10090;SDS011;5084;51.386;6.778;2023-03-14T13:10:22;7.57;;;3.63;;
10090;SDS011;5084;51.386;6.778;2023-03-14T13:15:19;10.87;;;3.23;;
10090;SDS011;5084;51.386;6.778;2023-03-14T13:17:46;7.13;;;2.40;;
10090;SDS011;5084;51.386;6.778;2023-03-14T13:20:15;8.67;;;3.97;;
10090;SDS011;5084;51.386;6.778;2023-03-14T13:22:45;5.97;;;2.97;;
10090;SDS011;5084;51.386;6.778;2023-03-14T13:25:11;10.97;;;3.47;;
10090;SDS011;5084;51.386;6.778;2023-03-14T13:27:38;7.93;;;3.07;;
10090;SDS011;5084;51.386;6.778;2023-03-14T13:30:17;6.67;;;3.20;;
10090;SDS011;5084;51.386;6.778;2023-03-14T13:32:44;6.83;;;3.23;;
10090;SDS011;5084;51.386;6.778;2023-03-14T13:35:15;13.03;;;3.40;;
10090;SDS011;5084;51.386;6.778;2023-03-14T13:37:41;7.50;;;4.00;;
10090;SDS011;5084;51.386;6.778;2023-03-14T13:40:17;12.33;;;3.80;;
10090;SDS011;5084;51.386;6.778;2023-03-14T13:42:43;12.53;;;4.03;;
10090;SDS011;5084;51.386;6.778;2023-03-14T13:45:12;7.30;;;3.30;;
10090;SDS011;5084;51.386;6.778;2023-03-14T13:47:38;9.20;;;4.10;;
10090;SDS011;5084;51.386;6.778;2023-03-14T13:50:11;10.10;;;3.67;;
10090;SDS011;5084;51.386;6.778;2023-03-14T13:52:38;10.47;;;3.37;;
10090;SDS011;5084;51.386;6.778;2023-03-14T13:55:05;7.93;;;3.70;;
10090;SDS011;5084;51.386;6.778;2023-03-14T13:57:47;10.40;;;3.13;;
10090;SDS011;5084;51.386;6.778;2023-03-14T14:00:24;7.50;;;3.67;;
10090;SDS011;5084;51.386;6.778;2023-03-14T14:02:55;7.23;;;3.30;;
10090;SDS011;5084;51.386;6.778;2023-03-14T14:05:22;11.93;;;3.00;;
10090;SDS011;5084;51.386;6.778;2023-03-14T14:07:48;7.80;;;2.70;;
10090;SDS011;5084;51.386;6.778;2023-03-14T14:10:16;10.83;;;3.57;;
10090;SDS011;5084;51.386;6.778;2023-03-14T14:12:43;10.30;;;3.47;;
10090;SDS011;5084;51.386;6.778;2023-03-14T14:15:26;13.80;;;3.90;;
10090;SDS011;5084;51.386;6.778;2023-03-14T14:18:00;9.60;;;3.30;;
10090;SDS011;5084;51.386;6.778;2023-03-14T14:20:36;11.17;;;3.00;;
10090;SDS011;5084;51.386;6.778;2023-03-14T14:23:04;5.93;;;2.50;;
10090;SDS011;5084;51.386;6.778;2023-03-14T14:25:31;4.87;;;2.20;;
10090;SDS011;5084;51.386;6.778;2023-03-14T14:27:57;8.90;;;2.83;;
10090;SDS011;5084;51.386;6.778;2023-03-14T14:30:32;7.87;;;2.53;;
10090;SDS011;5084;51.386;6.778;2023-03-14T14:35:58;7.47;;;3.33;;
10090;SDS011;5084;51.386;6.778;2023-03-14T14:38:25;6.20;;;2.23;;
10090;SDS011;5084;51.386;6.778;2023-03-14T14:40:53;8.73;;;2.43;;
10090;SDS011;5084;51.386;6.778;2023-03-14T14:43:23;5.60;;;2.57;;
10090;SDS011;5084;51.386;6.778;2023-03-14T14:45:50;10.47;;;2.50;;
10090;SDS011;5084;51.386;6.778;2023-03-14T14:48:18;8.03;;;2.30;;
10090;SDS011;5084;51.386;6.778;2023-03-14T14:53:35;6.87;;;3.00;;
10090;SDS011;5084;51.386;6.778;2023-03-14T14:56:07;6.43;;;2.43;;
10090;SDS011;5084;51.386;6.778;2023-03-14T14:58:36;4.83;;;1.93;;
10090;SDS011;5084;51.386;6.778;2023-03-14T15:01:07;4.70;;;2.27;;
10090;SDS011;5084;51.386;6.778;2023-03-14T15:03:36;4.97;;;2.03;;
10090;SDS011;5084;51.386;6.778;2023-03-14T15:06:02;7.10;;;2.43;;
10090;SDS011;5084;51.386;6.778;2023-03-14T15:08:32;4.20;;;2.03;;
10090;SDS011;5084;51.386;6.778;2023-03-14T15:10:58;8.13;;;2.27;;
10090;SDS011;5084;51.386;6.778;2023-03-14T15:13:24;6.20;;;2.67;;
10090;SDS011;5084;51.386;6.778;2023-03-14T15:15:50;8.73;;;2.30;;
10090;SDS011;5084;51.386;6.778;2023-03-14T15:18:21;9.07;;;2.87;;
10090;SDS011;5084;51.386;6.778;2023-03-14T15:20:48;4.03;;;2.33;;
10090;SDS011;5084;51.386;6.778;2023-03-14T15:23:16;6.93;;;3.03;;
10090;SDS011;5084;51.386;6.778;2023-03-14T15:25:42;5.37;;;1.90;;
10090;SDS011;5084;51.386;6.778;2023-03-14T15:28:25;5.17;;;2.30;;
10090;SDS011;5084;51.386;6.778;2023-03-14T15:30:52;7.07;;;2.10;;
10090;SDS011;5084;51.386;6.778;2023-03-14T15:33:19;3.73;;;2.20;;
10090;SDS011;5084;51.386;6.778;2023-03-14T15:35:46;6.80;;;1.90;;
10090;SDS011;5084;51.386;6.778;2023-03-14T15:38:13;5.87;;;2.37;;
10090;SDS011;5084;51.386;6.778;2023-03-14T15:40:40;7.50;;;2.43;;
10090;SDS011;5084;51.386;6.778;2023-03-14T15:43:06;6.97;;;2.20;;
10090;SDS011;5084;51.386;6.778;2023-03-14T15:45:32;7.60;;;2.10;;
10090;SDS011;5084;51.386;6.778;2023-03-14T15:47:58;5.50;;;2.10;;
10090;SDS011;5084;51.386;6.778;2023-03-14T15:50:25;4.57;;;2.00;;
10090;SDS011;5084;51.386;6.778;2023-03-14T15:52:51;7.80;;;2.17;;
10090;SDS011;5084;51.386;6.778;2023-03-14T15:55:17;11.87;;;2.03;;
10090;SDS011;5084;51.386;6.778;2023-03-14T15:57:44;5.33;;;2.03;;